Randlett, Oklahoma
Current Conditions -  °F | °C
As of 1:52 PM on Wednesday 26 Nov 2014 (Local Time) from KSPS Reporting Station
Few Clouds Few Clouds  
Wind Chill: 59°   Ceiling: Unl
Heat Index: 59°   Visibility: 10mi
Dew Point: 35°   Wind: 14mph
Humidity: 41%   Direction: 10°N
Pressure: 30.2"   Gusts: NA
Location:  34.18°N, 98.46°W
Report Text: KSPS 261952Z 01012KT 10SM FEW120 15/02 A3020 RMK AO2 SLP226 T01500017
Loading
Personal Weather Stations






























Interactive Weather Map New forecast layout! Learn more

10-Day Weather Forecast

Advertisements
Track Severe Weather on mobile